createdAt,value
2019-01-23T00:00:58.917Z,-9.32
2019-01-23T00:03:24.947Z,-9.29
2019-01-23T00:05:51.368Z,-9.28
2019-01-23T00:08:17.666Z,-9.27
2019-01-23T00:10:43.682Z,-9.28
2019-01-23T00:13:09.595Z,-9.27
2019-01-23T00:15:35.678Z,-9.26
2019-01-23T00:18:01.611Z,-9.25
2019-01-23T00:20:27.745Z,-9.24
2019-01-23T00:22:53.686Z,-9.26
2019-01-23T00:25:19.671Z,-9.28
2019-01-23T00:27:45.736Z,-9.31
2019-01-23T00:30:13.453Z,-9.33
2019-01-23T00:32:39.475Z,-9.33
2019-01-23T00:35:06.191Z,-9.34
2019-01-23T00:37:32.308Z,-9.34
2019-01-23T00:39:58.359Z,-9.34
2019-01-23T00:42:24.370Z,-9.34
2019-01-23T00:44:50.291Z,-9.35
2019-01-23T00:47:16.325Z,-9.36
2019-01-23T00:49:44.278Z,-9.38
2019-01-23T00:52:10.262Z,-9.39
2019-01-23T00:54:36.497Z,-9.45
2019-01-23T00:57:02.608Z,-9.45
2019-01-23T00:59:28.507Z,-9.46
2019-01-23T01:01:54.664Z,-9.48
2019-01-23T01:04:20.590Z,-9.46
2019-01-23T01:06:46.801Z,-9.46
2019-01-23T01:09:12.689Z,-9.44
2019-01-23T01:11:38.710Z,-9.43
2019-01-23T01:14:05.025Z,-9.48
2019-01-23T01:16:31.145Z,-9.48
2019-01-23T01:18:57.301Z,-9.50
2019-01-23T01:21:23.184Z,-9.50
2019-01-23T01:23:49.189Z,-9.49
2019-01-23T01:26:15.356Z,-9.50
2019-01-23T01:28:41.383Z,-9.52
2019-01-23T01:31:07.302Z,-9.53
2019-01-23T01:33:34.098Z,-9.55
2019-01-23T01:36:00.041Z,-9.58
2019-01-23T01:38:26.399Z,-9.60
2019-01-23T01:40:52.522Z,-9.60
2019-01-23T01:43:18.649Z,-9.62
2019-01-23T01:45:44.558Z,-9.63
2019-01-23T01:48:10.481Z,-9.67
2019-01-23T01:50:36.585Z,-9.71
2019-01-23T01:53:02.787Z,-9.76
2019-01-23T01:55:28.928Z,-9.80
2019-01-23T01:57:56.848Z,-9.86
2019-01-23T02:00:23.267Z,-9.88
2019-01-23T02:02:49.321Z,-9.91
2019-01-23T02:05:15.452Z,-9.91
2019-01-23T02:07:41.810Z,-9.94
2019-01-23T02:10:11.017Z,-9.97
2019-01-23T02:12:37.136Z,-10.02
2019-01-23T02:15:05.939Z,-10.09
2019-01-23T02:17:31.836Z,-10.12
2019-01-23T02:19:57.869Z,-10.14
2019-01-23T02:22:23.895Z,-10.16
2019-01-23T02:24:49.884Z,-10.19
2019-01-23T02:27:15.924Z,-10.22
2019-01-23T02:29:42.046Z,-10.24
2019-01-23T02:32:07.995Z,-10.26
2019-01-23T02:34:33.931Z,-10.28
2019-01-23T02:36:59.922Z,-10.31
2019-01-23T02:39:26.114Z,-10.34
2019-01-23T02:41:52.121Z,-10.33
2019-01-23T02:44:20.680Z,-10.28
2019-01-23T02:46:46.755Z,-10.23
2019-01-23T02:49:12.646Z,-10.18
2019-01-23T02:51:38.653Z,-10.15
2019-01-23T02:54:04.598Z,-10.13
2019-01-23T02:56:30.485Z,-10.10
2019-01-23T02:58:56.411Z,-10.07
2019-01-23T03:01:22.430Z,-10.03
2019-01-23T03:03:48.362Z,-10.01
2019-01-23T03:06:14.456Z,-10.01
2019-01-23T03:08:40.588Z,-10.01
2019-01-23T03:11:06.748Z,-10.00
2019-01-23T03:13:32.753Z,-9.98
2019-01-23T03:15:58.740Z,-9.98
2019-01-23T03:18:24.817Z,-9.95
2019-01-23T03:20:51.066Z,-9.94
2019-01-23T03:23:16.963Z,-9.96
2019-01-23T03:25:42.878Z,-9.97
2019-01-23T03:28:08.983Z,-10.00
2019-01-23T03:30:34.906Z,-10.01
2019-01-23T03:33:00.829Z,-10.01
2019-01-23T03:35:26.966Z,-10.02
2019-01-23T03:37:52.867Z,-10.01
2019-01-23T03:40:20.104Z,-10.01
2019-01-23T03:42:46.234Z,-10.01
2019-01-23T03:45:13.765Z,-10.03
2019-01-23T03:47:39.760Z,-10.06
2019-01-23T03:50:09.097Z,-10.08
2019-01-23T03:52:35.005Z,-10.08
2019-01-23T03:55:01.218Z,-10.11
2019-01-23T03:57:27.359Z,-10.12
2019-01-23T03:59:53.484Z,-10.13
2019-01-23T04:02:19.477Z,-10.15
2019-01-23T04:04:45.504Z,-10.14
2019-01-23T04:07:11.607Z,-10.14
2019-01-23T04:09:37.456Z,-10.13
2019-01-23T04:12:03.591Z,-10.15
2019-01-23T04:14:29.603Z,-10.14
2019-01-23T04:16:55.616Z,-10.10
2019-01-23T04:19:21.611Z,-10.09
2019-01-23T04:21:47.771Z,-10.09
2019-01-23T04:24:13.895Z,-10.11
2019-01-23T04:26:39.811Z,-10.10
2019-01-23T04:29:05.856Z,-10.09
2019-01-23T04:31:31.747Z,-10.08
2019-01-23T04:33:57.667Z,-10.07
2019-01-23T04:36:23.779Z,-10.08
2019-01-23T04:38:49.814Z,-10.08
2019-01-23T04:41:16.005Z,-10.08
2019-01-23T04:43:41.922Z,-10.08
2019-01-23T04:46:07.958Z,-10.10
2019-01-23T04:48:33.896Z,-10.10
2019-01-23T04:51:18.458Z,-10.13
2019-01-23T04:53:45.669Z,-10.14
2019-01-23T04:56:11.792Z,-10.14
2019-01-23T04:58:37.677Z,-10.15
2019-01-23T05:01:03.991Z,-10.17
2019-01-23T05:03:30.111Z,-10.17
2019-01-23T05:05:56.196Z,-10.18
2019-01-23T05:08:22.345Z,-10.18
2019-01-23T05:10:48.231Z,-10.17
2019-01-23T05:13:14.351Z,-10.19
2019-01-23T05:15:40.413Z,-10.19
2019-01-23T05:18:06.515Z,-10.15
2019-01-23T05:20:32.545Z,-10.16
2019-01-23T05:22:58.643Z,-10.17
2019-01-23T05:25:24.678Z,-10.18
2019-01-23T05:27:50.687Z,-10.18
2019-01-23T05:30:19.659Z,-10.18
2019-01-23T05:32:45.683Z,-10.21
2019-01-23T05:35:11.966Z,-10.23
2019-01-23T05:37:38.078Z,-10.26
2019-01-23T05:40:06.794Z,-10.27
2019-01-23T05:42:33.105Z,-10.29
2019-01-23T05:44:59.002Z,-10.32
2019-01-23T05:47:24.901Z,-10.34
2019-01-23T05:49:50.929Z,-10.36
2019-01-23T05:52:17.062Z,-10.40
2019-01-23T05:54:42.984Z,-10.41
2019-01-23T05:57:08.966Z,-10.42
2019-01-23T05:59:34.995Z,-10.44
2019-01-23T06:02:01.163Z,-10.43
2019-01-23T06:04:27.162Z,-10.44
2019-01-23T06:06:53.288Z,-10.47
2019-01-23T06:09:19.313Z,-10.51
2019-01-23T06:11:45.215Z,-10.54
2019-01-23T06:14:11.267Z,-10.59
2019-01-23T06:16:37.413Z,-10.64
2019-01-23T06:19:03.496Z,-10.65
2019-01-23T06:21:29.408Z,-10.62
2019-01-23T06:23:55.421Z,-10.59
2019-01-23T06:26:21.347Z,-10.57
2019-01-23T06:28:47.376Z,-10.55
2019-01-23T06:31:13.399Z,-10.55
2019-01-23T06:33:39.347Z,-10.56
2019-01-23T06:36:05.249Z,-10.56
2019-01-23T06:38:31.359Z,-10.57
2019-01-23T06:40:57.498Z,-10.59
2019-01-23T06:43:23.663Z,-10.60
2019-01-23T06:45:49.692Z,-10.59
2019-01-23T06:48:15.698Z,-10.58
2019-01-23T06:50:41.631Z,-10.56
2019-01-23T06:53:13.820Z,-10.56
2019-01-23T06:55:35.582Z,-10.54
2019-01-23T06:58:01.508Z,-10.54
2019-01-23T07:00:27.470Z,-10.52
2019-01-23T07:02:53.613Z,-10.51
2019-01-23T07:05:19.827Z,-10.52
2019-01-23T07:07:45.958Z,-10.52
2019-01-23T07:10:15.416Z,-10.53
2019-01-23T07:12:41.323Z,-10.55
2019-01-23T07:15:09.611Z,-10.57
2019-01-23T07:17:35.661Z,-10.60
2019-01-23T07:20:01.765Z,-10.60
2019-01-23T07:22:27.781Z,-10.60
2019-01-23T07:24:53.854Z,-10.61
2019-01-23T07:27:19.873Z,-10.61
2019-01-23T07:29:46.088Z,-10.61
2019-01-23T07:32:12.131Z,-10.61
2019-01-23T07:34:38.059Z,-10.61
2019-01-23T07:37:04.164Z,-10.58
2019-01-23T07:39:30.157Z,-10.57
2019-01-23T07:41:57.083Z,-10.57
2019-01-23T07:44:23.503Z,-10.59
2019-01-23T07:46:49.523Z,-10.57
2019-01-23T07:49:15.659Z,-10.57
2019-01-23T07:51:41.549Z,-10.54
2019-01-23T07:54:07.464Z,-10.53
2019-01-23T07:56:33.484Z,-10.52
2019-01-23T07:58:59.494Z,-10.49
2019-01-23T08:01:25.954Z,-10.45
2019-01-23T08:03:51.972Z,-10.40
2019-01-23T08:06:18.072Z,-10.37
2019-01-23T08:08:44.088Z,-10.36
2019-01-23T08:11:10.199Z,-10.33
2019-01-23T08:13:36.350Z,-10.31
2019-01-23T08:16:02.533Z,-10.28
2019-01-23T08:18:28.629Z,-10.23
2019-01-23T08:20:54.659Z,-10.21
2019-01-23T08:23:20.776Z,-10.19
2019-01-23T08:25:46.797Z,-10.15
2019-01-23T08:28:12.686Z,-10.12
2019-01-23T08:30:40.831Z,-10.09
2019-01-23T08:33:06.663Z,-10.08
2019-01-23T08:35:32.804Z,-10.04
2019-01-23T08:37:58.726Z,-10.01
2019-01-23T08:40:24.846Z,-9.98
2019-01-23T08:42:50.968Z,-9.97
2019-01-23T08:45:17.476Z,-9.94
2019-01-23T08:47:43.582Z,-9.93
2019-01-23T08:50:22.391Z,-9.93
2019-01-23T08:52:48.278Z,-9.94
2019-01-23T08:55:14.419Z,-9.94
2019-01-23T08:57:40.537Z,-9.92
2019-01-23T09:00:10.167Z,-9.90
2019-01-23T09:02:36.303Z,-9.87
2019-01-23T09:05:04.128Z,-9.84
2019-01-23T09:07:30.165Z,-9.83
2019-01-23T09:09:56.170Z,-9.81
2019-01-23T09:12:22.337Z,-9.81
2019-01-23T09:14:48.222Z,-9.80
2019-01-23T09:17:14.209Z,-9.75
2019-01-23T09:19:40.271Z,-9.71
2019-01-23T09:22:06.185Z,-9.69
2019-01-23T09:24:32.113Z,-9.64
2019-01-23T09:26:58.274Z,-9.59
2019-01-23T09:29:24.173Z,-9.57
2019-01-23T09:32:05.778Z,-9.53
2019-01-23T09:34:53.520Z,-9.50
2019-01-23T09:37:29.034Z,-9.48
2019-01-23T09:40:17.138Z,-9.46
2019-01-23T09:42:49.596Z,-9.46
2019-01-23T09:45:28.400Z,-9.44
2019-01-23T09:48:10.297Z,-9.42
2019-01-23T09:50:49.132Z,-9.38
2019-01-23T09:53:21.639Z,-9.36
2019-01-23T09:55:47.637Z,-9.68
2019-01-23T09:58:13.571Z,-9.33
2019-01-23T10:00:39.707Z,-9.31
2019-01-23T10:03:05.727Z,-9.31
2019-01-23T10:05:31.862Z,-9.26
2019-01-23T10:07:57.999Z,-9.23
2019-01-23T10:10:23.953Z,-9.20
2019-01-23T10:12:50.039Z,-9.18
2019-01-23T10:15:19.763Z,-9.15
2019-01-23T10:17:45.920Z,-9.15
2019-01-23T10:20:13.873Z,-9.12
2019-01-23T10:22:39.992Z,-9.09
2019-01-23T10:25:06.120Z,-9.06
2019-01-23T10:27:32.123Z,-9.03
2019-01-23T10:29:58.154Z,-9.02
2019-01-23T10:32:24.198Z,-8.99
2019-01-23T10:34:50.094Z,-8.97
2019-01-23T10:37:19.611Z,-8.95
2019-01-23T10:39:44.267Z,-8.93
2019-01-23T10:42:10.376Z,-8.92
2019-01-23T10:44:36.439Z,-8.91
2019-01-23T10:47:02.839Z,-8.91
2019-01-23T10:49:28.921Z,-8.91
2019-01-23T10:51:54.834Z,-8.94
2019-01-23T10:54:20.953Z,-8.94
2019-01-23T10:56:48.990Z,-8.93
2019-01-23T10:59:14.910Z,-8.93
2019-01-23T11:01:41.008Z,-8.92
2019-01-23T11:04:07.151Z,-8.89
2019-01-23T11:06:33.381Z,-8.88
2019-01-23T11:08:59.272Z,-8.85
2019-01-23T11:11:25.312Z,-8.81
2019-01-23T11:13:51.422Z,-8.80
2019-01-23T11:16:17.450Z,-8.80
2019-01-23T11:18:43.840Z,-8.76
2019-01-23T11:21:10.017Z,-8.74
2019-01-23T11:23:36.234Z,-8.72
2019-01-23T11:26:02.802Z,-8.70
2019-01-23T11:28:28.925Z,-8.68
2019-01-23T11:30:55.078Z,-8.65
2019-01-23T11:33:21.077Z,-8.62
2019-01-23T11:35:46.988Z,-8.60
2019-01-23T11:38:13.110Z,-8.57
2019-01-23T11:40:39.457Z,-8.57
2019-01-23T11:43:05.590Z,-8.54
2019-01-23T11:45:31.704Z,-8.52
2019-01-23T11:47:58.161Z,-8.48
2019-01-23T11:50:24.271Z,-8.56
2019-01-23T11:52:50.801Z,-8.42
2019-01-23T11:55:17.045Z,-8.40
2019-01-23T11:57:43.074Z,-8.36
2019-01-23T12:00:18.011Z,-8.34
2019-01-23T12:02:44.035Z,-8.30
2019-01-23T12:05:12.636Z,-8.28
2019-01-23T12:07:38.803Z,-8.24
2019-01-23T12:10:08.502Z,-8.22
2019-01-23T12:12:34.429Z,-8.18
2019-01-23T12:15:00.362Z,-8.15
2019-01-23T12:17:26.440Z,-8.10
2019-01-23T12:19:52.328Z,-8.07
2019-01-23T12:22:18.357Z,-8.01
2019-01-23T12:24:44.516Z,-8.01
2019-01-23T12:27:10.394Z,-7.96
2019-01-23T12:29:36.439Z,-7.93
2019-01-23T12:32:02.867Z,-7.91
2019-01-23T12:34:28.795Z,-7.88
2019-01-23T12:36:54.790Z,-7.85
2019-01-23T12:39:20.949Z,-7.83
2019-01-23T12:41:47.084Z,-7.79
2019-01-23T12:44:13.097Z,-7.76
2019-01-23T12:46:39.210Z,-7.73
2019-01-23T12:49:05.528Z,-7.69
2019-01-23T12:51:31.407Z,-7.68
2019-01-23T12:53:57.322Z,-7.64
2019-01-23T12:56:23.325Z,-7.63
2019-01-23T12:58:49.248Z,-7.62
2019-01-23T13:01:15.695Z,-7.62
2019-01-23T13:03:41.891Z,-7.60
2019-01-23T13:06:07.997Z,-7.60
2019-01-23T13:08:33.952Z,-7.58
2019-01-23T13:10:59.973Z,-7.57
2019-01-23T13:13:26.102Z,-7.56
2019-01-23T13:15:52.217Z,-7.55
2019-01-23T13:18:18.265Z,-7.85
2019-01-23T13:20:44.301Z,-7.53
2019-01-23T13:23:10.230Z,-7.53
2019-01-23T13:25:36.272Z,-7.51
2019-01-23T13:28:02.603Z,-7.50
2019-01-23T13:30:28.723Z,-7.48
2019-01-23T13:32:55.039Z,-7.47
2019-01-23T13:35:27.008Z,-7.47
2019-01-23T13:37:53.197Z,-7.44
2019-01-23T13:40:31.191Z,-7.42
2019-01-23T13:42:57.338Z,-7.44
2019-01-23T13:45:23.473Z,-7.44
2019-01-23T13:47:49.622Z,-7.42
2019-01-23T13:50:15.884Z,-7.43
2019-01-23T13:52:41.976Z,-7.42
2019-01-23T13:55:10.911Z,-7.44
2019-01-23T13:57:36.897Z,-7.44
2019-01-23T14:00:06.791Z,-7.42
2019-01-23T14:02:32.786Z,-7.41
2019-01-23T14:04:58.728Z,-7.38
2019-01-23T14:07:24.631Z,-7.38
2019-01-23T14:09:50.780Z,-7.35
2019-01-23T14:12:16.986Z,-7.34
2019-01-23T14:14:42.914Z,-7.37
2019-01-23T14:17:08.923Z,-7.37
2019-01-23T14:19:34.830Z,-7.36
2019-01-23T14:22:00.740Z,-7.36
2019-01-23T14:24:26.737Z,-7.37
2019-01-23T14:26:52.789Z,-7.69
2019-01-23T14:29:18.712Z,-7.39
2019-01-23T14:31:44.717Z,-7.41
2019-01-23T14:34:10.659Z,-7.41
2019-01-23T14:36:36.565Z,-7.44
2019-01-23T14:39:05.324Z,-7.44
2019-01-23T14:41:31.361Z,-7.43
2019-01-23T14:43:57.302Z,-7.42
2019-01-23T14:46:23.192Z,-7.41
2019-01-23T14:48:49.204Z,-7.41
2019-01-23T14:51:15.572Z,-7.42
2019-01-23T14:53:41.424Z,-7.44
2019-01-23T14:56:07.533Z,-7.48
2019-01-23T14:58:33.456Z,-7.49
2019-01-23T15:00:59.375Z,-7.51
2019-01-23T15:03:25.318Z,-7.55
2019-01-23T15:05:51.441Z,-7.55
2019-01-23T15:08:17.380Z,-7.58
2019-01-23T15:10:43.272Z,-7.58
2019-01-23T15:13:09.342Z,-7.54
2019-01-23T15:15:35.348Z,-7.56
2019-01-23T15:18:01.405Z,-7.57
2019-01-23T15:20:36.346Z,-7.59
2019-01-23T15:23:02.489Z,-7.65
2019-01-23T15:25:28.585Z,-7.62
2019-01-23T15:27:54.714Z,-7.66
2019-01-23T15:30:22.475Z,-7.69
2019-01-23T15:32:48.561Z,-7.69
2019-01-23T15:35:14.820Z,-7.74
2019-01-23T15:37:40.804Z,-7.76
2019-01-23T15:40:13.329Z,-7.81
2019-01-23T15:42:39.520Z,-8.23
2019-01-23T15:45:08.450Z,-8.23
2019-01-23T15:47:34.467Z,-7.85
2019-01-23T15:50:00.465Z,-7.85
2019-01-23T15:52:26.775Z,-7.84
2019-01-23T15:54:52.780Z,-7.82
2019-01-23T15:57:18.926Z,-7.79
2019-01-23T15:59:45.077Z,-7.80
2019-01-23T16:02:11.069Z,-7.80
2019-01-23T16:04:36.997Z,-7.82
2019-01-23T16:07:04.090Z,-7.84
2019-01-23T16:09:30.225Z,-7.85
2019-01-23T16:11:56.232Z,-7.83
2019-01-23T16:14:22.276Z,-7.81
2019-01-23T16:16:48.282Z,-7.78
2019-01-23T16:19:14.334Z,-7.78
2019-01-23T16:21:45.612Z,-7.79
2019-01-23T16:24:08.589Z,-7.79
2019-01-23T16:26:34.636Z,-7.78
2019-01-23T16:29:00.645Z,-7.77
2019-01-23T16:31:27.106Z,-7.77
2019-01-23T16:33:53.008Z,-7.75
2019-01-23T16:36:18.984Z,-7.73
2019-01-23T16:38:45.021Z,-7.84
2019-01-23T16:41:10.962Z,-7.69
2019-01-23T16:43:36.975Z,-7.68
2019-01-23T16:46:03.472Z,-7.67
2019-01-23T16:48:29.699Z,-7.67
2019-01-23T16:50:55.731Z,-7.67
2019-01-23T16:53:22.630Z,-7.64
2019-01-23T16:55:48.671Z,-7.64
2019-01-23T16:58:14.761Z,-7.64
2019-01-23T17:00:40.889Z,-7.66
2019-01-23T17:03:07.338Z,-7.68
2019-01-23T17:05:33.465Z,-7.70
2019-01-23T17:08:01.269Z,-7.72
2019-01-23T17:10:27.725Z,-7.73
2019-01-23T17:12:53.824Z,-7.78
2019-01-23T17:15:19.932Z,-7.78
2019-01-23T17:17:46.128Z,-7.74
2019-01-23T17:20:15.758Z,-7.76
2019-01-23T17:22:41.953Z,-7.76
2019-01-23T17:25:09.682Z,-7.77
2019-01-23T17:27:35.818Z,-7.77
2019-01-23T17:30:04.025Z,-7.77
2019-01-23T17:32:30.085Z,-7.76
2019-01-23T17:34:56.144Z,-7.74
2019-01-23T17:37:22.125Z,-7.72
2019-01-23T17:39:48.127Z,-7.71
2019-01-23T17:42:14.104Z,-7.70
2019-01-23T17:44:40.210Z,-7.73
2019-01-23T17:47:06.360Z,-7.71
2019-01-23T17:49:32.285Z,-7.71
2019-01-23T17:51:58.296Z,-7.71
2019-01-23T17:54:24.392Z,-7.70
2019-01-23T17:56:50.739Z,-7.68
2019-01-23T17:59:16.994Z,-7.68
2019-01-23T18:01:43.015Z,-7.68
2019-01-23T18:04:09.015Z,-7.66
2019-01-23T18:06:35.031Z,-7.65
2019-01-23T18:09:01.178Z,-7.64
2019-01-23T18:11:27.190Z,-7.64
2019-01-23T18:13:53.316Z,-7.64
2019-01-23T18:16:19.432Z,-7.64
2019-01-23T18:18:45.537Z,-7.61
2019-01-23T18:21:11.469Z,-7.61
2019-01-23T18:23:37.577Z,-7.63
2019-01-23T18:26:03.813Z,-7.64
2019-01-23T18:28:29.838Z,-7.67
2019-01-23T18:30:59.577Z,-7.67
2019-01-23T18:33:41.144Z,-7.67
2019-01-23T18:36:23.070Z,-7.67
2019-01-23T18:39:10.710Z,-7.70
2019-01-23T18:41:43.541Z,-7.65
2019-01-23T18:44:34.257Z,-7.64
2019-01-23T18:47:07.075Z,-7.63
2019-01-23T18:49:36.804Z,-7.61
2019-01-23T18:52:09.528Z,-7.61
2019-01-23T18:54:35.807Z,-7.61
2019-01-23T18:57:01.970Z,-7.61
2019-01-23T18:59:27.886Z,-7.60
2019-01-23T19:01:53.885Z,-7.60
2019-01-23T19:04:20.046Z,-7.61
2019-01-23T19:06:46.129Z,-7.63
2019-01-23T19:09:12.147Z,-7.90
2019-01-23T19:11:38.158Z,-7.62
2019-01-23T19:14:04.272Z,-7.62
2019-01-23T19:16:30.531Z,-7.62
2019-01-23T19:18:56.835Z,-7.62
2019-01-23T19:21:22.935Z,-7.63
2019-01-23T19:23:48.968Z,-7.62
2019-01-23T19:26:14.987Z,-7.63
2019-01-23T19:28:41.085Z,-7.63
2019-01-23T19:31:07.239Z,-7.64
2019-01-23T19:33:33.266Z,-7.61
2019-01-23T19:35:59.522Z,-7.61
2019-01-23T19:38:25.425Z,-7.59
2019-01-23T19:40:51.556Z,-7.64
2019-01-23T19:43:17.594Z,-7.62
2019-01-23T19:45:43.705Z,-7.65
2019-01-23T19:48:09.682Z,-7.70
2019-01-23T19:50:35.801Z,-7.70
2019-01-23T19:53:01.727Z,-7.70
2019-01-23T19:55:27.788Z,-7.71
2019-01-23T19:57:53.824Z,-7.73
2019-01-23T20:00:20.547Z,-7.71
2019-01-23T20:02:46.684Z,-7.69
2019-01-23T20:05:15.531Z,-7.69
2019-01-23T20:07:41.942Z,-7.70
2019-01-23T20:10:14.569Z,-7.73
2019-01-23T20:12:40.787Z,-7.72
2019-01-23T20:15:13.205Z,-7.74
2019-01-23T20:17:39.212Z,-7.76
2019-01-23T20:20:08.672Z,-7.77
2019-01-23T20:22:34.694Z,-7.76
2019-01-23T20:25:00.665Z,-7.77
2019-01-23T20:27:26.599Z,-7.77
2019-01-23T20:29:52.610Z,-7.77
2019-01-23T20:32:18.543Z,-7.74
2019-01-23T20:34:44.464Z,-7.72
2019-01-23T20:37:10.608Z,-7.73
2019-01-23T20:39:36.709Z,-7.74
2019-01-23T20:42:02.949Z,-7.73
2019-01-23T20:44:28.865Z,-7.70
2019-01-23T20:46:54.996Z,-7.70
2019-01-23T20:49:20.944Z,-7.73
2019-01-23T20:51:47.054Z,-7.72
2019-01-23T20:54:12.976Z,-7.73
2019-01-23T20:56:39.193Z,-7.77
2019-01-23T20:59:05.181Z,-7.72
2019-01-23T21:01:31.209Z,-7.71
2019-01-23T21:03:57.212Z,-7.71
2019-01-23T21:06:23.251Z,-7.68
2019-01-23T21:08:49.260Z,-7.68
2019-01-23T21:11:15.190Z,-7.66
2019-01-23T21:13:41.301Z,-7.66
2019-01-23T21:16:07.453Z,-7.68
2019-01-23T21:18:33.460Z,-7.70
2019-01-23T21:20:59.564Z,-7.72
2019-01-23T21:23:25.603Z,-7.74
2019-01-23T21:25:51.808Z,-7.73
2019-01-23T21:28:17.931Z,-7.71
2019-01-23T21:30:44.028Z,-7.74
2019-01-23T21:33:09.990Z,-7.74
2019-01-23T21:35:36.099Z,-7.70
2019-01-23T21:38:02.192Z,-7.69
2019-01-23T21:40:29.608Z,-7.66
2019-01-23T21:42:55.528Z,-7.67
2019-01-23T21:45:21.652Z,-7.70
2019-01-23T21:47:49.493Z,-7.73
2019-01-23T21:50:17.635Z,-7.74
2019-01-23T21:52:43.635Z,-7.77
2019-01-23T21:55:12.474Z,-7.77
2019-01-23T21:57:38.578Z,-7.81
2019-01-23T22:00:19.815Z,-7.82
2019-01-23T22:02:45.918Z,-7.82
2019-01-23T22:05:13.252Z,-7.82
2019-01-23T22:07:39.413Z,-7.83
2019-01-23T22:10:08.907Z,-7.83
2019-01-23T22:12:34.918Z,-7.82
2019-01-23T22:15:01.066Z,-7.84
2019-01-23T22:17:27.209Z,-7.87
2019-01-23T22:19:53.132Z,-7.87
2019-01-23T22:22:19.035Z,-7.88
2019-01-23T22:24:44.957Z,-7.87
2019-01-23T22:27:10.869Z,-7.89
2019-01-23T22:29:36.902Z,-7.94
2019-01-23T22:32:03.104Z,-7.99
2019-01-23T22:34:29.000Z,-8.05
2019-01-23T22:36:54.932Z,-8.12
2019-01-23T22:39:20.832Z,-8.18
2019-01-23T22:41:46.932Z,-8.21
2019-01-23T22:44:12.997Z,-8.22
2019-01-23T22:46:39.011Z,-8.24
2019-01-23T22:49:05.005Z,-8.24
2019-01-23T22:51:30.950Z,-8.21
2019-01-23T22:53:56.960Z,-8.23
2019-01-23T22:56:22.977Z,-8.23
2019-01-23T22:58:48.995Z,-8.22
2019-01-23T23:01:18.342Z,-8.25
2019-01-23T23:03:44.644Z,-8.25
2019-01-23T23:06:10.688Z,-8.23
2019-01-23T23:08:36.607Z,-8.29
2019-01-23T23:11:03.133Z,-8.29
2019-01-23T23:13:29.125Z,-8.30
2019-01-23T23:15:55.065Z,-8.30
2019-01-23T23:18:20.985Z,-8.32
2019-01-23T23:20:47.088Z,-8.34
2019-01-23T23:23:13.006Z,-8.39
2019-01-23T23:25:39.156Z,-8.45
2019-01-23T23:28:05.344Z,-8.48
2019-01-23T23:30:31.374Z,-8.53
2019-01-23T23:32:57.414Z,-8.61
2019-01-23T23:35:23.428Z,-8.63
2019-01-23T23:37:49.575Z,-8.63
2019-01-23T23:40:15.677Z,-8.63
2019-01-23T23:42:42.290Z,-8.63
2019-01-23T23:45:11.193Z,-8.72
2019-01-23T23:47:37.449Z,-8.78
2019-01-23T23:50:07.053Z,-8.80
2019-01-23T23:52:32.944Z,-8.81
2019-01-23T23:54:58.861Z,-8.84
2019-01-23T23:57:24.869Z,-8.85
2019-01-23T23:59:51.111Z,-8.87
